sensor_id;sensor_type;location;lat;lon;timestamp;P1;durP1;ratioP1;P2;durP2;ratioP2
16308;SDS011;8263;48.880;9.276;2023-03-13T00:01:37;133.48;;;123.97;;
16308;SDS011;8263;48.880;9.276;2023-03-13T00:04:04;133.10;;;123.63;;
16308;SDS011;8263;48.880;9.276;2023-03-13T00:06:31;130.15;;;120.97;;
16308;SDS011;8263;48.880;9.276;2023-03-13T00:08:58;133.50;;;123.90;;
16308;SDS011;8263;48.880;9.276;2023-03-13T00:11:25;131.52;;;122.22;;
16308;SDS011;8263;48.880;9.276;2023-03-13T00:13:52;131.85;;;122.55;;
16308;SDS011;8263;48.880;9.276;2023-03-13T00:16:19;133.50;;;123.95;;
16308;SDS011;8263;48.880;9.276;2023-03-13T00:18:47;132.82;;;123.45;;
16308;SDS011;8263;48.880;9.276;2023-03-13T00:21:14;133.88;;;124.40;;
16308;SDS011;8263;48.880;9.276;2023-03-13T00:23:41;130.90;;;121.70;;
16308;SDS011;8263;48.880;9.276;2023-03-13T00:26:08;132.85;;;123.40;;
16308;SDS011;8263;48.880;9.276;2023-03-13T00:28:35;132.43;;;123.13;;
16308;SDS011;8263;48.880;9.276;2023-03-13T00:31:02;133.30;;;123.32;;
16308;SDS011;8263;48.880;9.276;2023-03-13T00:33:30;132.93;;;123.50;;
16308;SDS011;8263;48.880;9.276;2023-03-13T00:35:58;133.45;;;124.00;;
16308;SDS011;8263;48.880;9.276;2023-03-13T00:38:26;133.27;;;123.88;;
16308;SDS011;8263;48.880;9.276;2023-03-13T00:40:57;131.75;;;122.35;;
16308;SDS011;8263;48.880;9.276;2023-03-13T00:43:23;133.35;;;123.85;;
16308;SDS011;8263;48.880;9.276;2023-03-13T00:45:50;134.00;;;124.53;;
16308;SDS011;8263;48.880;9.276;2023-03-13T00:48:16;131.85;;;122.53;;
16308;SDS011;8263;48.880;9.276;2023-03-13T00:50:42;133.75;;;124.25;;
16308;SDS011;8263;48.880;9.276;2023-03-13T00:53:10;132.80;;;123.40;;
16308;SDS011;8263;48.880;9.276;2023-03-13T00:55:37;132.27;;;122.90;;
16308;SDS011;8263;48.880;9.276;2023-03-13T00:58:03;133.60;;;124.13;;
16308;SDS011;8263;48.880;9.276;2023-03-13T01:00:30;132.38;;;123.07;;
16308;SDS011;8263;48.880;9.276;2023-03-13T01:02:56;133.95;;;124.45;;
16308;SDS011;8263;48.880;9.276;2023-03-13T01:05:23;130.90;;;121.70;;
16308;SDS011;8263;48.880;9.276;2023-03-13T01:07:49;133.93;;;124.43;;
16308;SDS011;8263;48.880;9.276;2023-03-13T01:10:17;133.48;;;123.95;;
16308;SDS011;8263;48.880;9.276;2023-03-13T01:12:43;133.70;;;124.22;;
16308;SDS011;8263;48.880;9.276;2023-03-13T01:15:10;129.98;;;120.88;;
16308;SDS011;8263;48.880;9.276;2023-03-13T01:17:36;133.30;;;123.85;;
16308;SDS011;8263;48.880;9.276;2023-03-13T01:20:03;133.68;;;124.18;;
16308;SDS011;8263;48.880;9.276;2023-03-13T01:22:30;133.15;;;123.65;;
16308;SDS011;8263;48.880;9.276;2023-03-13T01:24:56;134.15;;;124.63;;
16308;SDS011;8263;48.880;9.276;2023-03-13T01:27:24;134.90;;;125.32;;
16308;SDS011;8263;48.880;9.276;2023-03-13T01:29:50;131.93;;;122.45;;
16308;SDS011;8263;48.880;9.276;2023-03-13T01:32:17;133.00;;;123.60;;
16308;SDS011;8263;48.880;9.276;2023-03-13T01:34:43;130.50;;;121.32;;
16308;SDS011;8263;48.880;9.276;2023-03-13T01:37:10;133.65;;;124.20;;
16308;SDS011;8263;48.880;9.276;2023-03-13T01:39:36;133.93;;;124.35;;
16308;SDS011;8263;48.880;9.276;2023-03-13T01:42:03;134.63;;;125.03;;
16308;SDS011;8263;48.880;9.276;2023-03-13T01:47:12;133.32;;;123.90;;
16308;SDS011;8263;48.880;9.276;2023-03-13T01:49:39;134.52;;;124.93;;
16308;SDS011;8263;48.880;9.276;2023-03-13T01:52:05;134.52;;;124.95;;
16308;SDS011;8263;48.880;9.276;2023-03-13T01:54:34;134.73;;;125.13;;
16308;SDS011;8263;48.880;9.276;2023-03-13T01:57:04;133.20;;;123.63;;
16308;SDS011;8263;48.880;9.276;2023-03-13T01:59:31;133.93;;;124.40;;
16308;SDS011;8263;48.880;9.276;2023-03-13T02:02:00;135.32;;;124.65;;
16308;SDS011;8263;48.880;9.276;2023-03-13T02:04:30;133.30;;;123.80;;
16308;SDS011;8263;48.880;9.276;2023-03-13T02:06:57;133.00;;;123.53;;
16308;SDS011;8263;48.880;9.276;2023-03-13T02:09:25;133.73;;;124.22;;
16308;SDS011;8263;48.880;9.276;2023-03-13T02:11:54;134.93;;;125.22;;
16308;SDS011;8263;48.880;9.276;2023-03-13T02:14:22;135.80;;;125.93;;
16308;SDS011;8263;48.880;9.276;2023-03-13T02:16:50;132.43;;;122.93;;
16308;SDS011;8263;48.880;9.276;2023-03-13T02:19:18;134.40;;;124.80;;
16308;SDS011;8263;48.880;9.276;2023-03-13T02:21:48;133.75;;;124.20;;
16308;SDS011;8263;48.880;9.276;2023-03-13T02:24:17;133.20;;;123.80;;
16308;SDS011;8263;48.880;9.276;2023-03-13T02:26:48;132.15;;;122.82;;
16308;SDS011;8263;48.880;9.276;2023-03-13T02:29:14;134.98;;;125.30;;
16308;SDS011;8263;48.880;9.276;2023-03-13T02:31:43;131.52;;;122.28;;
16308;SDS011;8263;48.880;9.276;2023-03-13T02:34:11;133.88;;;124.38;;
16308;SDS011;8263;48.880;9.276;2023-03-13T02:36:39;132.93;;;123.53;;
16308;SDS011;8263;48.880;9.276;2023-03-13T02:39:06;132.23;;;122.57;;
16308;SDS011;8263;48.880;9.276;2023-03-13T02:41:33;131.40;;;121.88;;
16308;SDS011;8263;48.880;9.276;2023-03-13T02:44:01;131.93;;;122.43;;
16308;SDS011;8263;48.880;9.276;2023-03-13T02:46:29;133.20;;;123.80;;
16308;SDS011;8263;48.880;9.276;2023-03-13T02:48:56;134.65;;;125.15;;
16308;SDS011;8263;48.880;9.276;2023-03-13T02:51:24;131.48;;;122.15;;
16308;SDS011;8263;48.880;9.276;2023-03-13T02:53:53;133.48;;;124.07;;
16308;SDS011;8263;48.880;9.276;2023-03-13T02:56:21;132.93;;;123.47;;
16308;SDS011;8263;48.880;9.276;2023-03-13T02:58:49;133.18;;;123.78;;
16308;SDS011;8263;48.880;9.276;2023-03-13T03:01:17;131.25;;;121.97;;
16308;SDS011;8263;48.880;9.276;2023-03-13T03:03:43;133.23;;;123.43;;
16308;SDS011;8263;48.880;9.276;2023-03-13T03:06:10;132.23;;;122.70;;
16308;SDS011;8263;48.880;9.276;2023-03-13T03:08:36;135.07;;;125.47;;
16308;SDS011;8263;48.880;9.276;2023-03-13T03:11:05;133.18;;;123.72;;
16308;SDS011;8263;48.880;9.276;2023-03-13T03:13:32;134.93;;;125.28;;
16308;SDS011;8263;48.880;9.276;2023-03-13T03:15:58;129.82;;;120.72;;
16308;SDS011;8263;48.880;9.276;2023-03-13T03:18:37;133.18;;;123.80;;
16308;SDS011;8263;48.880;9.276;2023-03-13T03:21:04;133.93;;;124.45;;
16308;SDS011;8263;48.880;9.276;2023-03-13T03:23:31;131.20;;;121.97;;
16308;SDS011;8263;48.880;9.276;2023-03-13T03:25:58;134.35;;;124.85;;
16308;SDS011;8263;48.880;9.276;2023-03-13T03:28:24;133.10;;;123.70;;
16308;SDS011;8263;48.880;9.276;2023-03-13T03:30:50;133.60;;;122.30;;
16308;SDS011;8263;48.880;9.276;2023-03-13T03:33:18;131.73;;;122.45;;
16308;SDS011;8263;48.880;9.276;2023-03-13T03:35:46;132.13;;;122.82;;
16308;SDS011;8263;48.880;9.276;2023-03-13T03:38:12;134.40;;;124.90;;
16308;SDS011;8263;48.880;9.276;2023-03-13T03:40:38;133.00;;;123.60;;
16308;SDS011;8263;48.880;9.276;2023-03-13T03:43:06;134.63;;;124.97;;
16308;SDS011;8263;48.880;9.276;2023-03-13T03:45:32;133.18;;;123.78;;
16308;SDS011;8263;48.880;9.276;2023-03-13T03:47:59;133.57;;;124.18;;
16308;SDS011;8263;48.880;9.276;2023-03-13T03:50:26;131.73;;;122.47;;
16308;SDS011;8263;48.880;9.276;2023-03-13T03:52:54;135.38;;;125.05;;
16308;SDS011;8263;48.880;9.276;2023-03-13T03:55:22;130.35;;;121.22;;
16308;SDS011;8263;48.880;9.276;2023-03-13T03:57:48;133.65;;;124.25;;
16308;SDS011;8263;48.880;9.276;2023-03-13T04:00:15;131.40;;;122.18;;
16308;SDS011;8263;48.880;9.276;2023-03-13T04:02:43;132.68;;;123.38;;
16308;SDS011;8263;48.880;9.276;2023-03-13T04:05:09;131.75;;;122.50;;
16308;SDS011;8263;48.880;9.276;2023-03-13T04:07:35;132.88;;;123.53;;
16308;SDS011;8263;48.880;9.276;2023-03-13T04:10:04;133.68;;;124.28;;
16308;SDS011;8263;48.880;9.276;2023-03-13T04:12:30;133.27;;;123.88;;
16308;SDS011;8263;48.880;9.276;2023-03-13T04:14:57;132.50;;;123.18;;
16308;SDS011;8263;48.880;9.276;2023-03-13T04:17:23;131.38;;;121.97;;
16308;SDS011;8263;48.880;9.276;2023-03-13T04:19:50;130.55;;;121.40;;
16308;SDS011;8263;48.880;9.276;2023-03-13T04:22:16;132.82;;;123.45;;
16308;SDS011;8263;48.880;9.276;2023-03-13T04:24:43;131.88;;;122.53;;
16308;SDS011;8263;48.880;9.276;2023-03-13T04:27:11;132.35;;;123.05;;
16308;SDS011;8263;48.880;9.276;2023-03-13T04:29:37;131.63;;;122.40;;
16308;SDS011;8263;48.880;9.276;2023-03-13T04:32:04;131.98;;;122.68;;
16308;SDS011;8263;48.880;9.276;2023-03-13T04:34:30;133.32;;;123.88;;
16308;SDS011;8263;48.880;9.276;2023-03-13T04:36:57;132.15;;;122.82;;
16308;SDS011;8263;48.880;9.276;2023-03-13T04:39:23;131.52;;;122.32;;
16308;SDS011;8263;48.880;9.276;2023-03-13T04:41:50;130.55;;;121.43;;
16308;SDS011;8263;48.880;9.276;2023-03-13T04:44:18;131.70;;;122.45;;
16308;SDS011;8263;48.880;9.276;2023-03-13T04:46:45;132.90;;;123.13;;
16308;SDS011;8263;48.880;9.276;2023-03-13T04:49:12;130.95;;;121.75;;
16308;SDS011;8263;48.880;9.276;2023-03-13T04:51:39;132.48;;;123.18;;
16308;SDS011;8263;48.880;9.276;2023-03-13T04:54:06;130.38;;;121.28;;
16308;SDS011;8263;48.880;9.276;2023-03-13T04:56:32;132.05;;;122.63;;
16308;SDS011;8263;48.880;9.276;2023-03-13T04:58:59;131.80;;;122.55;;
16308;SDS011;8263;48.880;9.276;2023-03-13T05:01:26;133.18;;;123.78;;
16308;SDS011;8263;48.880;9.276;2023-03-13T05:03:53;132.60;;;122.90;;
16308;SDS011;8263;48.880;9.276;2023-03-13T05:06:20;132.02;;;122.75;;
16308;SDS011;8263;48.880;9.276;2023-03-13T05:08:46;129.65;;;120.60;;
16308;SDS011;8263;48.880;9.276;2023-03-13T05:11:13;131.70;;;122.43;;
16308;SDS011;8263;48.880;9.276;2023-03-13T05:13:39;131.77;;;122.50;;
16308;SDS011;8263;48.880;9.276;2023-03-13T05:16:06;131.63;;;122.43;;
16308;SDS011;8263;48.880;9.276;2023-03-13T05:18:34;131.13;;;121.93;;
16308;SDS011;8263;48.880;9.276;2023-03-13T05:21:01;129.90;;;120.80;;
16308;SDS011;8263;48.880;9.276;2023-03-13T05:23:27;131.18;;;121.97;;
16308;SDS011;8263;48.880;9.276;2023-03-13T05:25:54;132.27;;;122.97;;
16308;SDS011;8263;48.880;9.276;2023-03-13T05:28:20;129.68;;;120.68;;
16308;SDS011;8263;48.880;9.276;2023-03-13T05:30:47;130.50;;;121.40;;
16308;SDS011;8263;48.880;9.276;2023-03-13T05:33:13;132.00;;;122.50;;
16308;SDS011;8263;48.880;9.276;2023-03-13T05:35:41;131.82;;;122.57;;
16308;SDS011;8263;48.880;9.276;2023-03-13T05:38:07;130.00;;;120.90;;
16308;SDS011;8263;48.880;9.276;2023-03-13T05:40:34;132.65;;;123.35;;
16308;SDS011;8263;48.880;9.276;2023-03-13T05:43:00;129.13;;;120.15;;
16308;SDS011;8263;48.880;9.276;2023-03-13T05:45:27;131.68;;;122.47;;
16308;SDS011;8263;48.880;9.276;2023-03-13T05:47:53;129.52;;;120.53;;
16308;SDS011;8263;48.880;9.276;2023-03-13T05:50:20;131.27;;;122.07;;
16308;SDS011;8263;48.880;9.276;2023-03-13T05:52:48;128.30;;;119.35;;
16308;SDS011;8263;48.880;9.276;2023-03-13T05:55:15;130.52;;;121.38;;
16308;SDS011;8263;48.880;9.276;2023-03-13T05:57:43;128.15;;;119.25;;
16308;SDS011;8263;48.880;9.276;2023-03-13T06:00:09;131.10;;;122.00;;
16308;SDS011;8263;48.880;9.276;2023-03-13T06:02:36;129.77;;;120.75;;
16308;SDS011;8263;48.880;9.276;2023-03-13T06:05:03;129.90;;;120.88;;
16308;SDS011;8263;48.880;9.276;2023-03-13T06:07:30;130.95;;;121.85;;
16308;SDS011;8263;48.880;9.276;2023-03-13T06:09:57;128.40;;;119.50;;
16308;SDS011;8263;48.880;9.276;2023-03-13T06:12:24;127.90;;;119.03;;
16308;SDS011;8263;48.880;9.276;2023-03-13T06:14:50;128.50;;;119.60;;
16308;SDS011;8263;48.880;9.276;2023-03-13T06:17:17;130.75;;;121.28;;
16308;SDS011;8263;48.880;9.276;2023-03-13T06:19:44;130.60;;;121.50;;
16308;SDS011;8263;48.880;9.276;2023-03-13T06:22:11;128.57;;;119.68;;
16308;SDS011;8263;48.880;9.276;2023-03-13T06:24:37;127.43;;;118.63;;
16308;SDS011;8263;48.880;9.276;2023-03-13T06:27:05;128.95;;;120.05;;
16308;SDS011;8263;48.880;9.276;2023-03-13T06:29:32;127.22;;;118.43;;
16308;SDS011;8263;48.880;9.276;2023-03-13T06:31:58;127.97;;;119.15;;
16308;SDS011;8263;48.880;9.276;2023-03-13T06:34:25;126.30;;;117.60;;
16308;SDS011;8263;48.880;9.276;2023-03-13T06:36:51;128.30;;;119.40;;
16308;SDS011;8263;48.880;9.276;2023-03-13T06:39:18;126.93;;;118.18;;
16308;SDS011;8263;48.880;9.276;2023-03-13T06:41:44;125.07;;;116.47;;
16308;SDS011;8263;48.880;9.276;2023-03-13T06:44:12;128.65;;;119.75;;
16308;SDS011;8263;48.880;9.276;2023-03-13T06:46:39;127.75;;;118.95;;
16308;SDS011;8263;48.880;9.276;2023-03-13T06:49:05;128.63;;;119.32;;
16308;SDS011;8263;48.880;9.276;2023-03-13T06:51:32;128.30;;;119.45;;
16308;SDS011;8263;48.880;9.276;2023-03-13T06:54:00;127.30;;;118.50;;
16308;SDS011;8263;48.880;9.276;2023-03-13T06:56:26;127.47;;;118.68;;
16308;SDS011;8263;48.880;9.276;2023-03-13T06:58:53;129.10;;;120.20;;
16308;SDS011;8263;48.880;9.276;2023-03-13T07:01:21;127.10;;;117.88;;
16308;SDS011;8263;48.880;9.276;2023-03-13T07:03:47;129.38;;;120.40;;
16308;SDS011;8263;48.880;9.276;2023-03-13T07:06:14;128.95;;;120.05;;
16308;SDS011;8263;48.880;9.276;2023-03-13T07:08:41;125.95;;;117.32;;
16308;SDS011;8263;48.880;9.276;2023-03-13T07:11:08;127.25;;;118.50;;
16308;SDS011;8263;48.880;9.276;2023-03-13T07:13:35;123.80;;;115.35;;
16308;SDS011;8263;48.880;9.276;2023-03-13T07:16:02;126.90;;;118.20;;
16308;SDS011;8263;48.880;9.276;2023-03-13T07:18:30;124.53;;;116.00;;
16308;SDS011;8263;48.880;9.276;2023-03-13T07:20:58;126.35;;;117.65;;
16308;SDS011;8263;48.880;9.276;2023-03-13T07:23:26;127.05;;;118.35;;
16308;SDS011;8263;48.880;9.276;2023-03-13T07:25:52;126.53;;;117.82;;
16308;SDS011;8263;48.880;9.276;2023-03-13T07:28:20;127.82;;;119.03;;
16308;SDS011;8263;48.880;9.276;2023-03-13T07:30:46;125.43;;;116.80;;
16308;SDS011;8263;48.880;9.276;2023-03-13T07:33:13;125.00;;;116.40;;
16308;SDS011;8263;48.880;9.276;2023-03-13T07:35:44;123.68;;;115.25;;
16308;SDS011;8263;48.880;9.276;2023-03-13T07:38:12;124.70;;;116.10;;
16308;SDS011;8263;48.880;9.276;2023-03-13T07:40:38;125.50;;;116.90;;
16308;SDS011;8263;48.880;9.276;2023-03-13T07:43:05;124.18;;;115.70;;
16308;SDS011;8263;48.880;9.276;2023-03-13T07:45:31;126.63;;;117.93;;
16308;SDS011;8263;48.880;9.276;2023-03-13T07:47:58;123.65;;;115.20;;
16308;SDS011;8263;48.880;9.276;2023-03-13T07:50:24;122.35;;;114.05;;
16308;SDS011;8263;48.880;9.276;2023-03-13T07:52:52;123.93;;;115.47;;
16308;SDS011;8263;48.880;9.276;2023-03-13T07:55:18;125.95;;;117.30;;
16308;SDS011;8263;48.880;9.276;2023-03-13T07:57:45;126.78;;;118.10;;
16308;SDS011;8263;48.880;9.276;2023-03-13T08:00:11;122.80;;;114.40;;
16308;SDS011;8263;48.880;9.276;2023-03-13T08:02:40;124.93;;;116.43;;
16308;SDS011;8263;48.880;9.276;2023-03-13T08:05:07;124.88;;;116.35;;
16308;SDS011;8263;48.880;9.276;2023-03-13T08:07:33;124.93;;;116.38;;
16308;SDS011;8263;48.880;9.276;2023-03-13T08:10:01;123.65;;;114.95;;
16308;SDS011;8263;48.880;9.276;2023-03-13T08:12:28;124.80;;;116.30;;
16308;SDS011;8263;48.880;9.276;2023-03-13T08:14:55;124.10;;;115.63;;
16308;SDS011;8263;48.880;9.276;2023-03-13T08:17:21;123.13;;;114.72;;
16308;SDS011;8263;48.880;9.276;2023-03-13T08:19:48;126.40;;;117.78;;
16308;SDS011;8263;48.880;9.276;2023-03-13T08:22:14;123.50;;;115.10;;
16308;SDS011;8263;48.880;9.276;2023-03-13T08:24:41;125.22;;;116.65;;
16308;SDS011;8263;48.880;9.276;2023-03-13T08:27:09;126.03;;;117.43;;
16308;SDS011;8263;48.880;9.276;2023-03-13T08:29:35;123.88;;;115.45;;
16308;SDS011;8263;48.880;9.276;2023-03-13T08:32:02;124.20;;;115.72;;
16308;SDS011;8263;48.880;9.276;2023-03-13T08:34:29;123.60;;;115.20;;
16308;SDS011;8263;48.880;9.276;2023-03-13T08:36:55;124.53;;;116.03;;
16308;SDS011;8263;48.880;9.276;2023-03-13T08:39:22;123.55;;;115.15;;
16308;SDS011;8263;48.880;9.276;2023-03-13T08:41:48;122.30;;;114.00;;
16308;SDS011;8263;48.880;9.276;2023-03-13T08:44:17;123.82;;;114.72;;
16308;SDS011;8263;48.880;9.276;2023-03-13T08:46:44;124.13;;;115.72;;
16308;SDS011;8263;48.880;9.276;2023-03-13T08:49:10;124.25;;;115.80;;
16308;SDS011;8263;48.880;9.276;2023-03-13T08:51:37;124.80;;;116.30;;
16308;SDS011;8263;48.880;9.276;2023-03-13T08:54:04;123.50;;;115.10;;
16308;SDS011;8263;48.880;9.276;2023-03-13T08:56:31;121.07;;;112.88;;
16308;SDS011;8263;48.880;9.276;2023-03-13T08:58:58;122.13;;;113.82;;
16308;SDS011;8263;48.880;9.276;2023-03-13T09:01:27;120.90;;;112.70;;
16308;SDS011;8263;48.880;9.276;2023-03-13T09:03:53;121.47;;;113.28;;
16308;SDS011;8263;48.880;9.276;2023-03-13T09:06:20;123.05;;;114.72;;
16308;SDS011;8263;48.880;9.276;2023-03-13T09:08:46;122.90;;;114.57;;
16308;SDS011;8263;48.880;9.276;2023-03-13T09:11:14;119.70;;;111.65;;
16308;SDS011;8263;48.880;9.276;2023-03-13T09:13:41;119.72;;;111.70;;
16308;SDS011;8263;48.880;9.276;2023-03-13T09:16:09;119.28;;;111.28;;
16308;SDS011;8263;48.880;9.276;2023-03-13T09:18:37;119.70;;;111.60;;
16308;SDS011;8263;48.880;9.276;2023-03-13T09:21:05;118.28;;;110.35;;
16308;SDS011;8263;48.880;9.276;2023-03-13T09:23:31;122.13;;;113.88;;
16308;SDS011;8263;48.880;9.276;2023-03-13T09:25:58;119.32;;;111.32;;
16308;SDS011;8263;48.880;9.276;2023-03-13T09:28:24;121.60;;;113.40;;
16308;SDS011;8263;48.880;9.276;2023-03-13T09:30:51;120.28;;;112.18;;
16308;SDS011;8263;48.880;9.276;2023-03-13T09:33:18;119.85;;;111.75;;
16308;SDS011;8263;48.880;9.276;2023-03-13T09:35:48;119.10;;;111.10;;
16308;SDS011;8263;48.880;9.276;2023-03-13T09:38:15;119.30;;;111.30;;
16308;SDS011;8263;48.880;9.276;2023-03-13T09:40:43;120.32;;;112.22;;
16308;SDS011;8263;48.880;9.276;2023-03-13T09:43:14;120.95;;;112.85;;
16308;SDS011;8263;48.880;9.276;2023-03-13T09:45:43;119.65;;;111.60;;
16308;SDS011;8263;48.880;9.276;2023-03-13T09:48:23;119.20;;;111.20;;
16308;SDS011;8263;48.880;9.276;2023-03-13T09:50:55;119.97;;;111.95;;
16308;SDS011;8263;48.880;9.276;2023-03-13T09:53:26;118.45;;;110.55;;
16308;SDS011;8263;48.880;9.276;2023-03-13T09:55:56;120.20;;;112.10;;
16308;SDS011;8263;48.880;9.276;2023-03-13T09:58:24;117.65;;;109.78;;
16308;SDS011;8263;48.880;9.276;2023-03-13T10:00:53;116.93;;;109.13;;
16308;SDS011;8263;48.880;9.276;2023-03-13T10:03:21;117.28;;;109.47;;
16308;SDS011;8263;48.880;9.276;2023-03-13T10:05:49;119.93;;;111.93;;
16308;SDS011;8263;48.880;9.276;2023-03-13T10:08:18;116.07;;;108.35;;
16308;SDS011;8263;48.880;9.276;2023-03-13T10:10:47;118.18;;;109.35;;
16308;SDS011;8263;48.880;9.276;2023-03-13T10:13:17;117.07;;;109.28;;
16308;SDS011;8263;48.880;9.276;2023-03-13T10:15:46;115.55;;;107.85;;
16308;SDS011;8263;48.880;9.276;2023-03-13T10:18:15;118.55;;;110.65;;
16308;SDS011;8263;48.880;9.276;2023-03-13T10:20:42;116.78;;;108.97;;
16308;SDS011;8263;48.880;9.276;2023-03-13T10:23:11;117.45;;;109.57;;
16308;SDS011;8263;48.880;9.276;2023-03-13T10:25:41;115.68;;;107.97;;
16308;SDS011;8263;48.880;9.276;2023-03-13T10:28:09;113.70;;;106.15;;
16308;SDS011;8263;48.880;9.276;2023-03-13T10:30:36;116.32;;;108.55;;
16308;SDS011;8263;48.880;9.276;2023-03-13T10:33:16;115.82;;;108.13;;
16308;SDS011;8263;48.880;9.276;2023-03-13T10:35:43;115.43;;;107.72;;
16308;SDS011;8263;48.880;9.276;2023-03-13T10:38:10;113.57;;;106.07;;
16308;SDS011;8263;48.880;9.276;2023-03-13T10:40:37;113.60;;;105.70;;
16308;SDS011;8263;48.880;9.276;2023-03-13T10:43:12;114.28;;;106.72;;
16308;SDS011;8263;48.880;9.276;2023-03-13T10:45:38;112.90;;;105.45;;
16308;SDS011;8263;48.880;9.276;2023-03-13T10:48:10;112.90;;;105.50;;
16308;SDS011;8263;48.880;9.276;2023-03-13T10:50:37;113.50;;;106.03;;
16308;SDS011;8263;48.880;9.276;2023-03-13T10:53:07;113.30;;;105.80;;
16308;SDS011;8263;48.880;9.276;2023-03-13T10:55:33;110.97;;;103.68;;
16308;SDS011;8263;48.880;9.276;2023-03-13T10:58:00;112.85;;;105.45;;
16308;SDS011;8263;48.880;9.276;2023-03-13T11:00:31;111.43;;;104.10;;
16308;SDS011;8263;48.880;9.276;2023-03-13T11:02:59;111.75;;;104.40;;
16308;SDS011;8263;48.880;9.276;2023-03-13T11:05:29;110.50;;;103.28;;
16308;SDS011;8263;48.880;9.276;2023-03-13T11:07:56;112.43;;;105.03;;
16308;SDS011;8263;48.880;9.276;2023-03-13T11:10:24;111.75;;;104.35;;
16308;SDS011;8263;48.880;9.276;2023-03-13T11:12:53;108.55;;;101.45;;
16308;SDS011;8263;48.880;9.276;2023-03-13T11:15:20;108.32;;;101.25;;
16308;SDS011;8263;48.880;9.276;2023-03-13T11:17:51;111.30;;;104.00;;
16308;SDS011;8263;48.880;9.276;2023-03-13T11:20:21;110.13;;;102.93;;
16308;SDS011;8263;48.880;9.276;2023-03-13T11:22:49;108.22;;;101.15;;
16308;SDS011;8263;48.880;9.276;2023-03-13T11:25:19;110.05;;;102.75;;
16308;SDS011;8263;48.880;9.276;2023-03-13T11:27:47;108.07;;;101.00;;
16308;SDS011;8263;48.880;9.276;2023-03-13T11:30:19;111.30;;;104.00;;
16308;SDS011;8263;48.880;9.276;2023-03-13T11:32:53;107.45;;;100.40;;
16308;SDS011;8263;48.880;9.276;2023-03-13T11:35:25;106.13;;;99.05;;
16308;SDS011;8263;48.880;9.276;2023-03-13T11:37:56;109.10;;;101.90;;
16308;SDS011;8263;48.880;9.276;2023-03-13T11:40:24;107.25;;;100.25;;
16308;SDS011;8263;48.880;9.276;2023-03-13T11:43:00;106.95;;;99.95;;
16308;SDS011;8263;48.880;9.276;2023-03-13T11:45:39;105.47;;;98.47;;
16308;SDS011;8263;48.880;9.276;2023-03-13T11:48:13;104.65;;;97.85;;
16308;SDS011;8263;48.880;9.276;2023-03-13T11:50:44;105.78;;;98.88;;
16308;SDS011;8263;48.880;9.276;2023-03-13T11:53:21;103.88;;;97.18;;
16308;SDS011;8263;48.880;9.276;2023-03-13T11:55:58;103.60;;;96.90;;
16308;SDS011;8263;48.880;9.276;2023-03-13T11:58:31;102.47;;;95.88;;
16308;SDS011;8263;48.880;9.276;2023-03-13T12:01:01;104.57;;;97.78;;
16308;SDS011;8263;48.880;9.276;2023-03-13T12:03:33;102.63;;;96.00;;
16308;SDS011;8263;48.880;9.276;2023-03-13T12:06:00;103.32;;;96.60;;
16308;SDS011;8263;48.880;9.276;2023-03-13T12:08:29;101.35;;;94.80;;
16308;SDS011;8263;48.880;9.276;2023-03-13T12:11:00;101.63;;;95.05;;
16308;SDS011;8263;48.880;9.276;2023-03-13T12:13:30;101.13;;;94.63;;
16308;SDS011;8263;48.880;9.276;2023-03-13T12:15:58;99.47;;;93.07;;
16308;SDS011;8263;48.880;9.276;2023-03-13T12:18:27;98.07;;;91.78;;
16308;SDS011;8263;48.880;9.276;2023-03-13T12:20:59;99.03;;;92.68;;
16308;SDS011;8263;48.880;9.276;2023-03-13T12:23:29;100.50;;;94.00;;
16308;SDS011;8263;48.880;9.276;2023-03-13T12:26:00;99.97;;;93.57;;
16308;SDS011;8263;48.880;9.276;2023-03-13T12:28:29;97.63;;;91.32;;
16308;SDS011;8263;48.880;9.276;2023-03-13T12:30:59;99.88;;;93.47;;
16308;SDS011;8263;48.880;9.276;2023-03-13T12:33:28;99.05;;;92.72;;
16308;SDS011;8263;48.880;9.276;2023-03-13T12:36:00;98.20;;;91.90;;
16308;SDS011;8263;48.880;9.276;2023-03-13T12:38:28;98.60;;;92.28;;
16308;SDS011;8263;48.880;9.276;2023-03-13T12:41:00;100.20;;;93.70;;
16308;SDS011;8263;48.880;9.276;2023-03-13T12:43:30;101.15;;;94.65;;
16308;SDS011;8263;48.880;9.276;2023-03-13T12:46:04;96.63;;;90.43;;
16308;SDS011;8263;48.880;9.276;2023-03-13T12:48:36;97.65;;;91.38;;
16308;SDS011;8263;48.880;9.276;2023-03-13T12:51:11;96.10;;;89.95;;
16308;SDS011;8263;48.880;9.276;2023-03-13T12:53:47;96.28;;;90.10;;
16308;SDS011;8263;48.880;9.276;2023-03-13T12:56:30;98.30;;;91.95;;
16308;SDS011;8263;48.880;9.276;2023-03-13T12:59:02;95.57;;;89.47;;
16308;SDS011;8263;48.880;9.276;2023-03-13T13:01:30;94.28;;;88.28;;
16308;SDS011;8263;48.880;9.276;2023-03-13T13:03:59;95.95;;;89.85;;
16308;SDS011;8263;48.880;9.276;2023-03-13T13:06:28;96.45;;;90.25;;
16308;SDS011;8263;48.880;9.276;2023-03-13T13:09:16;95.55;;;89.25;;
16308;SDS011;8263;48.880;9.276;2023-03-13T13:11:45;94.25;;;88.25;;
16308;SDS011;8263;48.880;9.276;2023-03-13T13:17:14;95.70;;;89.60;;
16308;SDS011;8263;48.880;9.276;2023-03-13T13:19:43;94.57;;;88.47;;
16308;SDS011;8263;48.880;9.276;2023-03-13T13:24:56;94.20;;;88.20;;
16308;SDS011;8263;48.880;9.276;2023-03-13T13:27:27;93.72;;;87.75;;
16308;SDS011;8263;48.880;9.276;2023-03-13T13:29:54;91.22;;;85.43;;
16308;SDS011;8263;48.880;9.276;2023-03-13T13:32:32;92.50;;;86.60;;
16308;SDS011;8263;48.880;9.276;2023-03-13T13:35:03;92.43;;;86.53;;
16308;SDS011;8263;48.880;9.276;2023-03-13T13:37:30;90.93;;;85.13;;
16308;SDS011;8263;48.880;9.276;2023-03-13T13:40:18;91.97;;;86.07;;
16308;SDS011;8263;48.880;9.276;2023-03-13T13:42:45;91.40;;;85.60;;
16308;SDS011;8263;48.880;9.276;2023-03-13T13:45:25;91.75;;;85.95;;
16308;SDS011;8263;48.880;9.276;2023-03-13T13:50:33;92.78;;;86.88;;
16308;SDS011;8263;48.880;9.276;2023-03-13T13:55:43;91.65;;;85.80;;
16308;SDS011;8263;48.880;9.276;2023-03-13T13:58:11;87.90;;;82.30;;
16308;SDS011;8263;48.880;9.276;2023-03-13T14:00:38;88.50;;;82.90;;
16308;SDS011;8263;48.880;9.276;2023-03-13T14:03:16;91.07;;;85.30;;
16308;SDS011;8263;48.880;9.276;2023-03-13T14:05:43;90.55;;;84.70;;
16308;SDS011;8263;48.880;9.276;2023-03-13T14:08:13;91.28;;;85.43;;
16308;SDS011;8263;48.880;9.276;2023-03-13T14:10:44;92.20;;;86.40;;
16308;SDS011;8263;48.880;9.276;2023-03-13T14:13:13;89.45;;;83.75;;
16308;SDS011;8263;48.880;9.276;2023-03-13T14:15:40;92.15;;;86.35;;
16308;SDS011;8263;48.880;9.276;2023-03-13T14:18:08;89.53;;;83.72;;
16308;SDS011;8263;48.880;9.276;2023-03-13T14:20:37;87.38;;;81.88;;
16308;SDS011;8263;48.880;9.276;2023-03-13T14:23:05;90.07;;;84.32;;
16308;SDS011;8263;48.880;9.276;2023-03-13T14:25:43;89.30;;;83.60;;
16308;SDS011;8263;48.880;9.276;2023-03-13T14:28:17;90.05;;;84.35;;
16308;SDS011;8263;48.880;9.276;2023-03-13T14:30:44;88.95;;;83.32;;
16308;SDS011;8263;48.880;9.276;2023-03-13T14:33:11;88.88;;;83.28;;